Time;durP1;ratioP1;P1;durP2;ratioP2;P2;SDS_P1;SDS_P2;PMS_P1;PMS_P2;Temp;Humidity;BMP_temperature;BMP_pressure;BME280_temperature;BME280_humidity;BME280_pressure;Samples;Min_cycle;Max_cycle;Signal;HPM_P1;HPM_P2
2023/03/29 00:00:13;;;;;;;11.93;4.38;;;;;;;;;;5085167;28;20051;-67
2023/03/29 00:02:40;;;;;;;11.88;4.13;;;;;;;;;;5088164;28;20052;-67
2023/03/29 00:05:11;;;;;;;8.45;3.70;;;;;;;;;;5086100;28;20496;-67
2023/03/29 00:07:38;;;;;;;8.00;4.20;;;;;;;;;;5087499;28;20055;-67
2023/03/29 00:10:06;;;;;;;9.27;3.83;;;;;;;;;;5086621;28;20048;-67
2023/03/29 00:12:34;;;;;;;12.68;4.47;;;;;;;;;;5088661;28;20519;-67
2023/03/29 00:15:01;;;;;;;9.32;4.05;;;;;;;;;;5085731;28;20040;-67
2023/03/29 00:17:29;;;;;;;8.35;4.00;;;;;;;;;;5088382;28;20097;-67
2023/03/29 00:19:56;;;;;;;12.23;4.07;;;;;;;;;;5087269;28;20571;-67
2023/03/29 00:22:25;;;;;;;9.23;3.42;;;;;;;;;;5082486;28;20053;-67
2023/03/29 00:24:53;;;;;;;8.18;3.70;;;;;;;;;;5088230;28;20055;-67
2023/03/29 00:27:20;;;;;;;11.57;4.03;;;;;;;;;;5080502;28;20059;-67
2023/03/29 00:29:48;;;;;;;7.72;4.00;;;;;;;;;;5062354;28;20073;-67
2023/03/29 00:32:15;;;;;;;9.27;3.85;;;;;;;;;;5077586;28;20452;-67
2023/03/29 00:34:44;;;;;;;7.07;3.78;;;;;;;;;;5079069;28;20047;-67
2023/03/29 00:37:13;;;;;;;9.15;3.92;;;;;;;;;;5078014;28;20055;-67
2023/03/29 00:39:43;;;;;;;7.43;3.75;;;;;;;;;;5088929;28;20459;-67
2023/03/29 00:42:12;;;;;;;12.48;4.15;;;;;;;;;;5067106;28;20055;-67
2023/03/29 00:44:56;;;;;;;8.85;4.10;;;;;;;;;;5080210;28;20064;-67
2023/03/29 00:47:26;;;;;;;8.10;3.83;;;;;;;;;;5085307;28;20052;-67
2023/03/29 00:49:53;;;;;;;10.73;4.53;;;;;;;;;;5067055;28;20056;-67
2023/03/29 00:52:22;;;;;;;6.05;3.75;;;;;;;;;;5067397;28;20449;-67
2023/03/29 00:54:53;;;;;;;9.48;4.38;;;;;;;;;;5085245;28;20059;-67
2023/03/29 00:57:21;;;;;;;9.32;3.90;;;;;;;;;;5081105;28;20048;-67
2023/03/29 00:59:49;;;;;;;9.20;4.03;;;;;;;;;;5080059;28;20051;-67
2023/03/29 01:02:20;;;;;;;8.98;4.35;;;;;;;;;;5087149;28;20062;-67
2023/03/29 01:04:50;;;;;;;12.18;4.22;;;;;;;;;;5083255;28;20129;-67
2023/03/29 01:07:20;;;;;;;7.43;3.78;;;;;;;;;;5067798;28;20052;-67
2023/03/29 01:09:51;;;;;;;9.15;4.05;;;;;;;;;;5069325;28;20074;-67
2023/03/29 01:12:21;;;;;;;9.40;3.75;;;;;;;;;;5088780;28;20126;-67
2023/03/29 01:14:50;;;;;;;9.38;3.40;;;;;;;;;;5084006;28;20052;-67
2023/03/29 01:17:20;;;;;;;12.73;3.40;;;;;;;;;;5089156;28;20091;-67
2023/03/29 01:19:50;;;;;;;12.77;3.50;;;;;;;;;;5087073;28;20062;-67
2023/03/29 01:22:27;;;;;;;8.38;3.22;;;;;;;;;;5081537;28;20051;-67
2023/03/29 01:25:00;;;;;;;9.65;3.55;;;;;;;;;;5083453;28;20466;-67
2023/03/29 01:27:48;;;;;;;6.70;3.05;;;;;;;;;;5085570;28;20054;-67
2023/03/29 01:30:21;;;;;;;7.65;3.22;;;;;;;;;;5081420;28;20090;-67
2023/03/29 01:32:50;;;;;;;11.02;3.58;;;;;;;;;;5082254;28;20155;-67
2023/03/29 01:35:21;;;;;;;6.07;3.30;;;;;;;;;;5085023;28;20441;-67
2023/03/29 01:37:51;;;;;;;7.85;3.97;;;;;;;;;;5087493;28;20066;-67
2023/03/29 01:40:19;;;;;;;8.10;3.53;;;;;;;;;;5083257;28;20514;-67
2023/03/29 01:42:49;;;;;;;6.60;3.50;;;;;;;;;;5082970;28;20056;-67
2023/03/29 01:45:21;;;;;;;8.52;3.85;;;;;;;;;;5062333;28;20471;-67
2023/03/29 01:47:54;;;;;;;9.43;3.67;;;;;;;;;;5077216;28;20058;-67
2023/03/29 01:50:25;;;;;;;9.65;3.70;;;;;;;;;;5076903;28;20060;-67
2023/03/29 01:52:55;;;;;;;8.13;3.65;;;;;;;;;;5084619;28;20097;-67
2023/03/29 01:55:24;;;;;;;8.13;3.58;;;;;;;;;;5081334;28;20048;-67
2023/03/29 01:57:52;;;;;;;5.95;3.00;;;;;;;;;;5086254;28;20055;-67
2023/03/29 02:00:23;;;;;;;6.82;3.50;;;;;;;;;;5085561;28;20510;-67
2023/03/29 02:02:52;;;;;;;6.85;3.20;;;;;;;;;;5087316;28;20440;-67
2023/03/29 02:05:20;;;;;;;7.13;3.10;;;;;;;;;;5083775;28;20055;-67
2023/03/29 02:07:49;;;;;;;9.20;4.57;;;;;;;;;;5082445;28;20392;-67
2023/03/29 02:10:17;;;;;;;8.15;3.20;;;;;;;;;;5081747;28;20067;-67
2023/03/29 02:12:44;;;;;;;8.98;3.40;;;;;;;;;;5078693;28;20517;-67
2023/03/29 02:15:12;;;;;;;7.10;3.15;;;;;;;;;;5085121;28;20395;-67
2023/03/29 02:17:42;;;;;;;9.75;2.90;;;;;;;;;;5084085;28;20497;-67
2023/03/29 02:20:13;;;;;;;7.55;2.80;;;;;;;;;;5066333;28;20484;-67
2023/03/29 02:22:43;;;;;;;8.40;2.80;;;;;;;;;;5081590;28;20522;-67
2023/03/29 02:25:11;;;;;;;4.05;2.53;;;;;;;;;;5087895;28;20048;-67
2023/03/29 02:27:39;;;;;;;7.78;2.85;;;;;;;;;;5082721;28;20044;-67
2023/03/29 02:30:07;;;;;;;7.72;2.50;;;;;;;;;;5066937;28;20056;-67
2023/03/29 02:32:39;;;;;;;6.70;2.80;;;;;;;;;;5081965;28;20051;-67
2023/03/29 02:35:11;;;;;;;7.40;2.60;;;;;;;;;;5081892;28;20055;-67
2023/03/29 02:37:41;;;;;;;6.43;2.80;;;;;;;;;;5061885;28;20503;-67
2023/03/29 02:40:11;;;;;;;4.07;2.10;;;;;;;;;;5080813;28;20052;-67
2023/03/29 02:42:38;;;;;;;5.57;2.05;;;;;;;;;;5086131;28;20047;-67
2023/03/29 02:45:07;;;;;;;7.63;2.50;;;;;;;;;;5067356;28;20059;-67
2023/03/29 02:47:37;;;;;;;7.15;2.20;;;;;;;;;;5064392;28;20522;-67
2023/03/29 02:50:05;;;;;;;3.72;2.30;;;;;;;;;;5086151;28;20475;-67
2023/03/29 02:52:36;;;;;;;6.03;2.22;;;;;;;;;;5083872;28;20059;-67
2023/03/29 02:55:05;;;;;;;4.93;2.35;;;;;;;;;;5080572;28;20500;-67
2023/03/29 02:57:34;;;;;;;5.97;2.45;;;;;;;;;;5081296;28;20047;-67
2023/03/29 03:00:03;;;;;;;5.60;2.30;;;;;;;;;;5081262;28;20052;-67
2023/03/29 03:02:30;;;;;;;6.63;2.53;;;;;;;;;;5081700;28;20036;-67
2023/03/29 03:04:58;;;;;;;4.10;2.20;;;;;;;;;;5071352;28;20053;-67
2023/03/29 03:07:25;;;;;;;5.78;2.30;;;;;;;;;;5081971;28;20126;-67
2023/03/29 03:09:54;;;;;;;11.82;3.08;;;;;;;;;;5064955;28;20163;-68
2023/03/29 03:12:21;;;;;;;8.25;2.55;;;;;;;;;;5084745;28;20101;-67
2023/03/29 03:14:48;;;;;;;7.47;2.80;;;;;;;;;;5091066;28;20088;-67
2023/03/29 03:17:17;;;;;;;8.80;2.78;;;;;;;;;;5071448;28;20913;-67
2023/03/29 03:19:44;;;;;;;4.78;2.58;;;;;;;;;;5087031;28;20067;-67
2023/03/29 03:22:14;;;;;;;8.10;2.60;;;;;;;;;;5086162;28;20143;-67
2023/03/29 03:24:41;;;;;;;5.07;2.75;;;;;;;;;;5082162;28;20044;-67
2023/03/29 03:27:10;;;;;;;7.03;2.75;;;;;;;;;;5084745;28;20048;-67
2023/03/29 03:29:38;;;;;;;6.72;2.75;;;;;;;;;;5090490;28;20055;-67
2023/03/29 03:32:05;;;;;;;8.02;2.70;;;;;;;;;;5088930;28;20044;-67
2023/03/29 03:34:33;;;;;;;6.80;2.58;;;;;;;;;;5071040;28;20051;-67
2023/03/29 03:37:01;;;;;;;9.02;2.70;;;;;;;;;;5083027;28;20123;-67
2023/03/29 03:39:28;;;;;;;8.52;3.67;;;;;;;;;;5086622;28;20158;-67
2023/03/29 03:41:55;;;;;;;8.57;3.45;;;;;;;;;;5088003;28;20051;-67
2023/03/29 03:44:24;;;;;;;8.25;3.25;;;;;;;;;;5079491;28;20059;-67
2023/03/29 03:46:51;;;;;;;5.70;2.92;;;;;;;;;;5077692;28;20051;-67
2023/03/29 03:49:20;;;;;;;8.80;2.92;;;;;;;;;;5069613;28;20052;-67
2023/03/29 03:51:47;;;;;;;9.55;3.17;;;;;;;;;;5086910;28;20447;-68
2023/03/29 03:54:15;;;;;;;7.75;2.88;;;;;;;;;;5082624;28;20410;-67
2023/03/29 03:56:42;;;;;;;8.00;3.15;;;;;;;;;;5084460;28;20048;-67
2023/03/29 03:59:09;;;;;;;6.20;2.92;;;;;;;;;;5082596;28;20045;-67
2023/03/29 04:01:42;;;;;;;7.57;3.08;;;;;;;;;;5087624;28;20097;-67
2023/03/29 04:04:09;;;;;;;7.32;3.10;;;;;;;;;;5085297;28;20066;-68
2023/03/29 04:06:37;;;;;;;6.13;2.90;;;;;;;;;;5082115;28;20036;-67
2023/03/29 04:09:04;;;;;;;8.00;3.08;;;;;;;;;;5084876;28;20059;-67
2023/03/29 04:11:32;;;;;;;7.63;3.15;;;;;;;;;;5087374;28;20052;-68
2023/03/29 04:14:00;;;;;;;5.43;3.05;;;;;;;;;;5085636;28;20548;-67
2023/03/29 04:16:27;;;;;;;6.70;3.72;;;;;;;;;;5078286;28;20422;-67
2023/03/29 04:18:55;;;;;;;6.28;3.67;;;;;;;;;;5083180;28;20041;-67
2023/03/29 04:21:23;;;;;;;4.90;3.20;;;;;;;;;;5084046;28;20048;-67
2023/03/29 04:23:50;;;;;;;6.97;3.33;;;;;;;;;;5068160;28;20047;-67
2023/03/29 04:26:17;;;;;;;5.97;3.20;;;;;;;;;;5088946;28;20134;-67
2023/03/29 04:28:45;;;;;;;8.48;3.63;;;;;;;;;;5086668;28;20040;-67
2023/03/29 04:31:13;;;;;;;7.55;3.78;;;;;;;;;;5088432;28;20055;-67
2023/03/29 04:33:41;;;;;;;8.07;3.90;;;;;;;;;;5086490;28;20147;-67
2023/03/29 04:36:10;;;;;;;10.48;3.78;;;;;;;;;;5081960;28;20043;-67
2023/03/29 04:38:40;;;;;;;8.98;4.00;;;;;;;;;;5083371;28;20052;-67
2023/03/29 04:41:08;;;;;;;13.52;4.18;;;;;;;;;;5087747;28;20152;-67
2023/03/29 04:43:36;;;;;;;7.32;3.88;;;;;;;;;;5089411;28;20087;-68
2023/03/29 04:46:06;;;;;;;7.50;4.18;;;;;;;;;;5089331;28;20503;-67
2023/03/29 04:48:35;;;;;;;11.70;4.25;;;;;;;;;;5081392;28;20140;-67
2023/03/29 04:51:02;;;;;;;10.23;4.45;;;;;;;;;;5083302;28;20052;-67
2023/03/29 04:53:31;;;;;;;8.18;4.40;;;;;;;;;;5085122;28;20083;-67
2023/03/29 04:55:58;;;;;;;12.82;5.10;;;;;;;;;;5067966;28;20143;-67
2023/03/29 04:58:26;;;;;;;8.77;4.85;;;;;;;;;;5085925;28;20079;-67
2023/03/29 05:00:56;;;;;;;11.30;5.43;;;;;;;;;;5088088;28;20135;-67
2023/03/29 05:03:23;;;;;;;12.73;5.07;;;;;;;;;;5084997;28;20535;-68
2023/03/29 05:05:50;;;;;;;9.55;5.03;;;;;;;;;;5085349;28;20109;-67
2023/03/29 05:08:18;;;;;;;10.13;5.15;;;;;;;;;;5084560;28;20067;-68
2023/03/29 05:10:48;;;;;;;10.57;5.40;;;;;;;;;;5082281;28;20466;-67
2023/03/29 05:13:16;;;;;;;14.13;6.00;;;;;;;;;;5061036;28;20048;-68
2023/03/29 05:15:43;;;;;;;12.60;6.50;;;;;;;;;;5081185;28;20067;-69
2023/03/29 05:18:11;;;;;;;13.23;6.60;;;;;;;;;;5081437;28;20044;-68
2023/03/29 05:20:39;;;;;;;19.08;7.88;;;;;;;;;;5086149;28;20048;-67
2023/03/29 05:23:06;;;;;;;15.70;7.70;;;;;;;;;;5060837;28;20048;-67
2023/03/29 05:25:34;;;;;;;15.65;8.18;;;;;;;;;;5083180;28;20052;-67
2023/03/29 05:28:02;;;;;;;17.73;8.85;;;;;;;;;;5085197;28;20392;-68
2023/03/29 05:30:29;;;;;;;17.23;9.18;;;;;;;;;;5086528;28;20126;-68
2023/03/29 05:32:58;;;;;;;20.48;9.95;;;;;;;;;;5080988;28;20056;-69
2023/03/29 05:35:25;;;;;;;18.13;9.77;;;;;;;;;;5085371;28;20471;-68
2023/03/29 05:37:54;;;;;;;16.70;9.90;;;;;;;;;;5086940;28;20113;-68
2023/03/29 05:40:21;;;;;;;20.20;9.45;;;;;;;;;;5080957;28;20101;-68
2023/03/29 05:42:48;;;;;;;19.52;10.00;;;;;;;;;;5077707;28;20131;-69
2023/03/29 05:45:17;;;;;;;20.05;10.13;;;;;;;;;;5081521;28;20382;-69
2023/03/29 05:47:45;;;;;;;22.08;10.48;;;;;;;;;;5067589;28;20068;-69
2023/03/29 05:50:12;;;;;;;19.35;10.95;;;;;;;;;;5082803;28;20071;-68
2023/03/29 05:52:40;;;;;;;21.80;10.93;;;;;;;;;;5087529;28;20131;-68
2023/03/29 05:55:07;;;;;;;21.90;12.15;;;;;;;;;;5087456;28;20040;-68
2023/03/29 05:57:36;;;;;;;21.05;11.93;;;;;;;;;;5087187;28;20040;-68
2023/03/29 06:00:16;;;;;;;27.15;13.75;;;;;;;;;;5083161;28;20052;-69
2023/03/29 06:02:45;;;;;;;24.88;13.18;;;;;;;;;;5082073;28;20567;-68
2023/03/29 06:05:13;;;;;;;25.20;13.05;;;;;;;;;;5079359;28;20055;-68
2023/03/29 06:07:41;;;;;;;23.48;13.05;;;;;;;;;;5084477;28;20047;-68
2023/03/29 06:10:09;;;;;;;24.30;12.50;;;;;;;;;;5074790;28;20063;-68
2023/03/29 06:12:36;;;;;;;26.05;12.63;;;;;;;;;;5084381;28;20044;-69
2023/03/29 06:15:04;;;;;;;25.33;12.20;;;;;;;;;;5080476;28;20047;-69
2023/03/29 06:17:32;;;;;;;23.45;10.98;;;;;;;;;;5083121;28;20466;-69
2023/03/29 06:20:01;;;;;;;21.30;11.43;;;;;;;;;;5086596;28;20052;-69
2023/03/29 06:22:28;;;;;;;18.30;10.85;;;;;;;;;;5085995;28;20047;-68
2023/03/29 06:24:56;;;;;;;21.17;10.43;;;;;;;;;;5079706;28;20053;-69
2023/03/29 06:27:23;;;;;;;18.30;9.95;;;;;;;;;;5064337;28;20093;-68
2023/03/29 06:29:50;;;;;;;18.33;10.48;;;;;;;;;;5084252;28;20032;-68
2023/03/29 06:32:18;;;;;;;19.92;10.10;;;;;;;;;;5085365;28;20079;-69
2023/03/29 06:34:46;;;;;;;19.42;11.02;;;;;;;;;;5083251;28;20124;-68
2023/03/29 06:37:14;;;;;;;16.58;9.70;;;;;;;;;;5087079;28;20048;-69
2023/03/29 06:39:42;;;;;;;16.90;9.93;;;;;;;;;;5077849;28;20370;-69
2023/03/29 06:42:09;;;;;;;18.20;10.02;;;;;;;;;;5085788;28;20055;-69
2023/03/29 06:44:37;;;;;;;17.70;11.05;;;;;;;;;;5082898;28;20048;-69
2023/03/29 06:47:04;;;;;;;20.40;10.25;;;;;;;;;;5081625;28;20044;-68
2023/03/29 06:49:31;;;;;;;16.75;8.95;;;;;;;;;;5088948;28;20044;-68
2023/03/29 06:51:58;;;;;;;13.85;9.02;;;;;;;;;;5072521;28;20052;-68
2023/03/29 06:54:27;;;;;;;16.45;8.98;;;;;;;;;;5090264;28;20506;-69
2023/03/29 06:56:56;;;;;;;16.23;9.30;;;;;;;;;;5067805;28;20048;-69
2023/03/29 06:59:23;;;;;;;17.52;9.20;;;;;;;;;;5086389;28;20098;-68
2023/03/29 07:01:52;;;;;;;14.82;9.32;;;;;;;;;;5088708;28;20134;-68
2023/03/29 07:04:21;;;;;;;14.27;8.05;;;;;;;;;;5089790;28;20060;-69
2023/03/29 07:07:00;;;;;;;12.52;8.30;;;;;;;;;;5090974;28;20048;-69
2023/03/29 07:09:29;;;;;;;14.98;8.23;;;;;;;;;;5078898;28;20460;-69
2023/03/29 07:11:57;;;;;;;13.48;8.40;;;;;;;;;;5086367;28;20514;-69
2023/03/29 07:14:27;;;;;;;15.05;8.10;;;;;;;;;;5084333;28;20051;-69
2023/03/29 07:16:55;;;;;;;15.77;8.27;;;;;;;;;;5086623;28;20476;-69
2023/03/29 07:19:24;;;;;;;16.55;8.20;;;;;;;;;;5090205;28;20444;-69
2023/03/29 07:21:52;;;;;;;15.95;7.60;;;;;;;;;;5087293;28;20047;-69
2023/03/29 07:24:20;;;;;;;13.38;7.85;;;;;;;;;;5086247;28;20479;-69
2023/03/29 07:26:49;;;;;;;15.88;8.00;;;;;;;;;;5085791;28;20124;-70
2023/03/29 07:29:16;;;;;;;15.50;8.48;;;;;;;;;;5072833;28;20485;-69
2023/03/29 07:31:44;;;;;;;12.60;7.53;;;;;;;;;;5087528;28;20081;-70
2023/03/29 07:34:12;;;;;;;11.27;7.80;;;;;;;;;;5087325;28;20044;-69
2023/03/29 07:36:42;;;;;;;12.80;8.45;;;;;;;;;;5089125;28;20044;-69
2023/03/29 07:39:11;;;;;;;12.77;8.25;;;;;;;;;;5070275;28;20105;-69
2023/03/29 07:41:39;;;;;;;11.82;7.88;;;;;;;;;;5084118;28;20036;-69
2023/03/29 07:44:08;;;;;;;14.02;8.10;;;;;;;;;;5084504;28;20044;-69
2023/03/29 07:46:36;;;;;;;17.58;8.10;;;;;;;;;;5090092;28;20403;-68
2023/03/29 07:49:04;;;;;;;16.10;7.72;;;;;;;;;;5087209;28;20168;-68
2023/03/29 07:51:31;;;;;;;16.60;7.65;;;;;;;;;;5080533;28;20048;-69
2023/03/29 07:53:59;;;;;;;15.60;7.97;;;;;;;;;;5088832;28;20491;-69
2023/03/29 07:56:26;;;;;;;16.50;8.25;;;;;;;;;;5068803;28;20536;-69
2023/03/29 07:58:54;;;;;;;18.33;7.50;;;;;;;;;;5082317;28;20080;-69
2023/03/29 08:01:23;;;;;;;11.57;7.18;;;;;;;;;;5085005;28;20055;-69
2023/03/29 08:03:50;;;;;;;14.00;7.30;;;;;;;;;;5087937;28;20446;-69
2023/03/29 08:06:18;;;;;;;15.75;7.18;;;;;;;;;;5083717;28;20056;-69
2023/03/29 08:08:45;;;;;;;15.98;7.07;;;;;;;;;;5082413;28;20055;-69
2023/03/29 08:11:12;;;;;;;16.50;7.20;;;;;;;;;;5076956;28;20052;-70
2023/03/29 08:13:40;;;;;;;13.63;7.03;;;;;;;;;;5083924;28;20139;-69
2023/03/29 08:16:08;;;;;;;20.67;7.90;;;;;;;;;;5084124;28;20048;-69
2023/03/29 08:18:37;;;;;;;12.55;6.72;;;;;;;;;;5081350;28;20044;-70
2023/03/29 08:21:04;;;;;;;18.25;7.65;;;;;;;;;;5083694;28;20506;-69
2023/03/29 08:23:32;;;;;;;16.90;7.63;;;;;;;;;;5080448;28;20106;-70
2023/03/29 08:25:59;;;;;;;13.52;7.40;;;;;;;;;;5086151;28;20047;-69
2023/03/29 08:28:26;;;;;;;12.45;7.07;;;;;;;;;;5080389;28;20051;-69
2023/03/29 08:30:54;;;;;;;10.30;6.78;;;;;;;;;;5068287;28;20066;-69
2023/03/29 08:33:22;;;;;;;14.20;7.60;;;;;;;;;;5086002;28;20462;-69
2023/03/29 08:35:50;;;;;;;12.15;7.25;;;;;;;;;;5088205;28;20059;-69
2023/03/29 08:38:18;;;;;;;13.95;7.30;;;;;;;;;;5086213;28;20147;-69
2023/03/29 08:40:48;;;;;;;13.02;6.53;;;;;;;;;;5079707;28;20110;-69
2023/03/29 08:43:23;;;;;;;15.38;7.63;;;;;;;;;;5086959;28;20051;-69
2023/03/29 08:45:58;;;;;;;17.58;7.68;;;;;;;;;;5083173;28;20045;-69
2023/03/29 08:48:28;;;;;;;16.52;7.15;;;;;;;;;;5080624;28;20052;-69
2023/03/29 08:51:00;;;;;;;16.67;6.97;;;;;;;;;;5083934;28;20048;-69
2023/03/29 08:53:29;;;;;;;12.77;6.97;;;;;;;;;;5084123;28;20101;-69
2023/03/29 08:55:58;;;;;;;15.13;7.18;;;;;;;;;;5068982;28;20044;-69
2023/03/29 08:58:27;;;;;;;16.92;7.75;;;;;;;;;;5066687;28;20130;-69
2023/03/29 09:00:56;;;;;;;17.83;7.30;;;;;;;;;;5088785;28;20411;-69
2023/03/29 09:03:24;;;;;;;16.67;7.60;;;;;;;;;;5080870;28;20053;-69
2023/03/29 09:05:54;;;;;;;13.00;7.20;;;;;;;;;;5082756;28;20101;-69
2023/03/29 09:08:23;;;;;;;15.98;7.22;;;;;;;;;;5065856;28;20105;-69
2023/03/29 09:10:58;;;;;;;23.08;8.02;;;;;;;;;;5064302;28;20058;-69
2023/03/29 09:13:33;;;;;;;16.48;7.97;;;;;;;;;;5088590;28;20051;-70
2023/03/29 09:16:04;;;;;;;16.00;7.82;;;;;;;;;;5064831;28;20048;-70
2023/03/29 09:18:35;;;;;;;22.95;8.43;;;;;;;;;;5087826;28;20054;-70
2023/03/29 09:21:06;;;;;;;22.05;8.00;;;;;;;;;;5070143;28;20052;-70
2023/03/29 09:23:55;;;;;;;17.73;8.00;;;;;;;;;;5086238;28;20052;-70
2023/03/29 09:26:25;;;;;;;17.65;7.57;;;;;;;;;;5063653;28;20127;-70
2023/03/29 09:28:56;;;;;;;19.80;8.38;;;;;;;;;;5087197;28;20070;-70
2023/03/29 09:31:27;;;;;;;20.70;8.25;;;;;;;;;;5087470;28;20052;-70
2023/03/29 09:33:57;;;;;;;22.05;7.93;;;;;;;;;;5086128;28;20044;-70
2023/03/29 09:36:25;;;;;;;20.67;8.38;;;;;;;;;;5080946;28;20454;-70
2023/03/29 09:38:54;;;;;;;18.63;8.85;;;;;;;;;;5085640;28;20120;-70
2023/03/29 09:41:23;;;;;;;18.40;8.80;;;;;;;;;;5084367;28;20114;-70
2023/03/29 09:43:51;;;;;;;18.60;8.27;;;;;;;;;;5077633;28;20051;-70
2023/03/29 09:46:22;;;;;;;24.52;8.57;;;;;;;;;;5086384;28;20406;-70
2023/03/29 09:48:50;;;;;;;18.55;8.88;;;;;;;;;;5084067;28;20356;-70
2023/03/29 09:51:20;;;;;;;19.98;8.75;;;;;;;;;;5082198;28;20058;-71
2023/03/29 09:53:47;;;;;;;18.77;9.13;;;;;;;;;;5083208;28;20044;-70
2023/03/29 09:56:17;;;;;;;18.27;9.25;;;;;;;;;;5079086;28;20040;-70
2023/03/29 09:58:45;;;;;;;19.25;9.15;;;;;;;;;;5062100;28;20163;-70
2023/03/29 10:01:14;;;;;;;19.00;8.60;;;;;;;;;;5058464;28;20052;-70
2023/03/29 10:03:42;;;;;;;20.45;9.38;;;;;;;;;;5081349;28;20052;-70
2023/03/29 10:06:10;;;;;;;22.35;10.05;;;;;;;;;;5082553;28;20059;-70
2023/03/29 10:08:39;;;;;;;20.75;9.07;;;;;;;;;;5074788;28;20462;-70
2023/03/29 10:11:09;;;;;;;20.02;9.02;;;;;;;;;;5073819;28;20053;-70
2023/03/29 10:13:44;;;;;;;19.65;9.85;;;;;;;;;;5080211;28;20043;-69
2023/03/29 10:16:18;;;;;;;20.58;10.27;;;;;;;;;;5079886;28;20499;-70
2023/03/29 10:18:46;;;;;;;28.10;10.48;;;;;;;;;;5066177;28;20503;-70
2023/03/29 10:21:15;;;;;;;23.83;9.82;;;;;;;;;;5081370;28;20055;-70
2023/03/29 10:23:44;;;;;;;20.98;10.07;;;;;;;;;;5063188;28;20059;-69
2023/03/29 10:26:16;;;;;;;23.92;10.70;;;;;;;;;;5080514;28;20048;-70
2023/03/29 10:28:45;;;;;;;23.60;11.25;;;;;;;;;;5083321;28;20048;-71
2023/03/29 10:31:18;;;;;;;22.75;10.50;;;;;;;;;;5085818;28;20624;-72
2023/03/29 10:33:51;;;;;;;22.40;10.10;;;;;;;;;;5061743;28;20044;-71
2023/03/29 10:36:19;;;;;;;21.42;10.10;;;;;;;;;;5083196;28;20411;-70
2023/03/29 10:38:46;;;;;;;23.83;10.52;;;;;;;;;;5082322;28;20040;-71
2023/03/29 10:41:21;;;;;;;23.08;10.43;;;;;;;;;;5084948;28;20067;-71
2023/03/29 10:43:51;;;;;;;23.63;10.25;;;;;;;;;;5065143;28;20058;-70
2023/03/29 10:46:21;;;;;;;24.63;10.50;;;;;;;;;;5086241;28;20545;-71
2023/03/29 10:48:49;;;;;;;25.25;11.60;;;;;;;;;;5082138;28;20036;-70
2023/03/29 10:51:17;;;;;;;23.60;10.95;;;;;;;;;;5077803;28;20209;-70
2023/03/29 10:53:45;;;;;;;28.60;12.45;;;;;;;;;;5085228;28;20059;-71
2023/03/29 10:56:27;;;;;;;25.85;11.38;;;;;;;;;;5083558;28;20143;-71
2023/03/29 10:59:04;;;;;;;27.40;11.90;;;;;;;;;;5083954;28;20380;-70
2023/03/29 11:01:36;;;;;;;27.42;12.35;;;;;;;;;;5067598;28;20470;-70
2023/03/29 11:04:08;;;;;;;28.25;14.07;;;;;;;;;;5066049;28;20060;-71
2023/03/29 11:06:40;;;;;;;25.75;13.23;;;;;;;;;;5084262;28;20051;-71
2023/03/29 11:09:12;;;;;;;32.13;14.40;;;;;;;;;;5077584;28;20108;-71
2023/03/29 11:11:46;;;;;;;24.58;14.93;;;;;;;;;;5083216;28;20044;-70
2023/03/29 11:14:17;;;;;;;27.42;14.35;;;;;;;;;;5066693;28;20064;-71
2023/03/29 11:16:47;;;;;;;42.22;16.52;;;;;;;;;;5063402;28;20040;-71
2023/03/29 11:19:32;;;;;;;32.17;17.85;;;;;;;;;;5078586;28;20047;-71
2023/03/29 11:22:02;;;;;;;31.42;16.90;;;;;;;;;;5057225;28;20504;-72
2023/03/29 11:24:39;;;;;;;29.88;16.85;;;;;;;;;;5061822;28;20078;-71
2023/03/29 11:27:13;;;;;;;37.85;18.20;;;;;;;;;;5074781;28;20049;-71
2023/03/29 11:29:45;;;;;;;36.75;18.58;;;;;;;;;;5081375;28;20052;-71
2023/03/29 11:32:16;;;;;;;34.35;18.17;;;;;;;;;;5085646;28;20471;-71
2023/03/29 11:34:53;;;;;;;37.42;17.70;;;;;;;;;;5082038;28;20090;-71
2023/03/29 11:37:24;;;;;;;40.15;19.00;;;;;;;;;;5061734;28;20085;-71
2023/03/29 11:39:56;;;;;;;39.60;20.08;;;;;;;;;;5083803;28;20051;-71
2023/03/29 11:42:25;;;;;;;36.55;18.08;;;;;;;;;;5087218;28;20058;-71
2023/03/29 11:44:54;;;;;;;39.67;19.30;;;;;;;;;;5070561;28;20086;-72
2023/03/29 11:47:22;;;;;;;37.85;19.30;;;;;;;;;;5088928;28;20054;-72
2023/03/29 11:49:53;;;;;;;49.80;21.67;;;;;;;;;;5067427;28;20051;-71
2023/03/29 11:52:23;;;;;;;42.60;20.25;;;;;;;;;;5088142;28;20075;-72
2023/03/29 11:54:53;;;;;;;40.65;21.27;;;;;;;;;;5065267;28;20106;-72
2023/03/29 11:57:24;;;;;;;41.08;20.17;;;;;;;;;;5087755;28;20055;-72
2023/03/29 11:59:55;;;;;;;42.45;19.80;;;;;;;;;;5086019;28;20040;-72
2023/03/29 12:02:25;;;;;;;36.30;20.08;;;;;;;;;;5067957;28;20056;-72
2023/03/29 12:04:55;;;;;;;37.05;18.90;;;;;;;;;;5079837;28;20040;-72
2023/03/29 12:07:26;;;;;;;32.60;17.73;;;;;;;;;;5084576;28;20052;-72
2023/03/29 12:09:57;;;;;;;34.22;18.55;;;;;;;;;;5082536;28;20398;-72
2023/03/29 12:12:27;;;;;;;36.85;17.83;;;;;;;;;;5080939;28;20383;-72
2023/03/29 12:14:59;;;;;;;37.80;20.02;;;;;;;;;;5064650;28;20490;-72
2023/03/29 12:17:28;;;;;;;41.03;20.73;;;;;;;;;;5064228;28;21605;-72
2023/03/29 12:20:01;;;;;;;36.13;19.98;;;;;;;;;;5088212;28;20374;-71
2023/03/29 12:22:28;;;;;;;33.50;20.93;;;;;;;;;;5084906;28;20400;-71
2023/03/29 12:24:57;;;;;;;35.53;22.25;;;;;;;;;;5084070;28;20052;-71
2023/03/29 12:27:26;;;;;;;32.47;22.40;;;;;;;;;;5082739;28;20059;-71
2023/03/29 12:30:07;;;;;;;37.97;22.30;;;;;;;;;;5086218;28;20131;-71
2023/03/29 12:32:42;;;;;;;35.75;22.48;;;;;;;;;;5082601;28;20134;-71
2023/03/29 12:35:19;;;;;;;35.67;21.30;;;;;;;;;;5067096;28;20449;-72
2023/03/29 12:37:51;;;;;;;34.03;20.42;;;;;;;;;;5083571;28;20087;-72
2023/03/29 12:40:20;;;;;;;28.05;18.92;;;;;;;;;;5087264;28;20040;-72
2023/03/29 12:42:48;;;;;;;34.63;19.15;;;;;;;;;;5081027;28;20048;-72
2023/03/29 12:45:19;;;;;;;31.70;19.60;;;;;;;;;;5086131;28;20040;-72
2023/03/29 12:47:47;;;;;;;30.90;19.17;;;;;;;;;;5060571;28;20491;-72
2023/03/29 12:50:32;;;;;;;29.45;19.42;;;;;;;;;;5060890;28;20044;-72
2023/03/29 12:53:04;;;;;;;31.13;19.00;;;;;;;;;;5062393;28;20518;-73
2023/03/29 12:55:33;;;;;;;32.08;18.85;;;;;;;;;;5085955;28;20415;-72
2023/03/29 12:58:05;;;;;;;27.25;17.90;;;;;;;;;;5064449;28;20052;-72
2023/03/29 13:00:42;;;;;;;28.85;17.17;;;;;;;;;;5082400;28;20048;-72
2023/03/29 13:03:21;;;;;;;28.52;15.15;;;;;;;;;;5084695;28;20055;-71
2023/03/29 13:05:58;;;;;;;32.13;15.55;;;;;;;;;;5085130;28;20126;-71
2023/03/29 13:08:27;;;;;;;26.02;14.95;;;;;;;;;;5077503;28;20052;-72
2023/03/29 13:10:55;;;;;;;26.73;14.85;;;;;;;;;;5058168;28;20064;-71
2023/03/29 13:13:26;;;;;;;23.30;14.05;;;;;;;;;;5063761;28;20053;-71
2023/03/29 13:15:55;;;;;;;24.33;13.90;;;;;;;;;;5062884;28;20095;-72
2023/03/29 13:18:39;;;;;;;28.98;13.45;;;;;;;;;;5059096;28;20056;-72
2023/03/29 13:21:13;;;;;;;22.02;13.82;;;;;;;;;;5066021;28;20084;-72
2023/03/29 13:23:45;;;;;;;23.58;14.07;;;;;;;;;;5057948;28;20411;-72
2023/03/29 13:26:30;;;;;;;23.67;13.23;;;;;;;;;;5058446;28;20072;-72
2023/03/29 13:29:04;;;;;;;21.50;13.75;;;;;;;;;;5052751;28;20289;-72
2023/03/29 13:31:37;;;;;;;22.40;13.93;;;;;;;;;;5063228;28;20476;-72
2023/03/29 13:34:06;;;;;;;20.23;13.75;;;;;;;;;;5058347;28;20049;-71
2023/03/29 13:36:44;;;;;;;20.45;12.35;;;;;;;;;;5062160;28;20163;-71
2023/03/29 13:39:16;;;;;;;20.38;12.15;;;;;;;;;;5059273;28;20454;-71
2023/03/29 13:41:48;;;;;;;17.55;12.88;;;;;;;;;;5066820;28;20049;-70
2023/03/29 13:44:24;;;;;;;21.73;12.73;;;;;;;;;;5059186;28;20056;-73
2023/03/29 13:47:02;;;;;;;21.13;12.70;;;;;;;;;;5062333;28;20128;-73
2023/03/29 13:49:30;;;;;;;17.13;12.18;;;;;;;;;;5056638;28;20052;-73
2023/03/29 13:52:07;;;;;;;18.15;11.55;;;;;;;;;;5059465;28;20063;-73
2023/03/29 13:54:36;;;;;;;19.35;11.60;;;;;;;;;;5064880;28;20049;-74
2023/03/29 13:57:07;;;;;;;20.48;13.35;;;;;;;;;;5065220;28;20052;-74
2023/03/29 13:59:38;;;;;;;21.35;13.30;;;;;;;;;;5065712;28;20629;-74
2023/03/29 14:02:07;;;;;;;18.17;14.05;;;;;;;;;;5066316;28;20120;-74
2023/03/29 14:04:38;;;;;;;21.45;13.57;;;;;;;;;;5063763;28;20052;-74
2023/03/29 14:07:07;;;;;;;23.27;14.52;;;;;;;;;;5066036;28;20057;-74
2023/03/29 14:09:36;;;;;;;22.85;15.07;;;;;;;;;;5070595;28;20162;-74
2023/03/29 14:12:03;;;;;;;24.50;16.45;;;;;;;;;;5084172;28;20131;-74
2023/03/29 14:14:31;;;;;;;28.58;17.33;;;;;;;;;;5068299;28;20547;-74
2023/03/29 14:16:59;;;;;;;22.55;15.07;;;;;;;;;;5079880;28;20082;-74
2023/03/29 14:19:30;;;;;;;22.98;15.25;;;;;;;;;;5064959;28;20054;-74
2023/03/29 14:21:58;;;;;;;25.40;16.10;;;;;;;;;;5086312;28;20044;-74
2023/03/29 14:24:27;;;;;;;26.75;16.48;;;;;;;;;;5065536;28;20040;-73
2023/03/29 14:26:55;;;;;;;25.88;15.57;;;;;;;;;;5066994;28;20094;-73
2023/03/29 14:29:22;;;;;;;20.77;16.38;;;;;;;;;;5068094;28;20522;-73
2023/03/29 14:31:49;;;;;;;23.33;15.48;;;;;;;;;;5066153;28;20074;-73
2023/03/29 14:34:18;;;;;;;22.02;15.32;;;;;;;;;;5068641;28;20062;-73
2023/03/29 14:36:47;;;;;;;21.73;14.57;;;;;;;;;;5059295;28;20048;-73
2023/03/29 14:39:16;;;;;;;21.45;14.88;;;;;;;;;;5060567;28;20486;-73
2023/03/29 14:41:46;;;;;;;22.92;14.85;;;;;;;;;;5061705;28;20135;-73